createdAt,value
2019-01-21T00:01:08.665Z,63.17
2019-01-21T00:03:37.070Z,64.03
2019-01-21T00:06:05.473Z,67.43
2019-01-21T00:08:33.930Z,64.23
2019-01-21T00:11:02.326Z,74.97
2019-01-21T00:13:30.883Z,68.67
2019-01-21T00:15:59.323Z,69.83
2019-01-21T00:18:27.750Z,66.43
2019-01-21T00:20:56.151Z,60.93
2019-01-21T00:23:24.599Z,59.67
2019-01-21T00:25:52.995Z,55.33
2019-01-21T00:28:21.556Z,58.40
2019-01-21T00:30:50.024Z,51.60
2019-01-21T00:33:18.496Z,53.70
2019-01-21T00:35:46.892Z,60.73
2019-01-21T00:38:15.679Z,58.63
2019-01-21T00:40:44.074Z,56.80
2019-01-21T00:43:12.479Z,60.00
2019-01-21T00:45:40.922Z,54.70
2019-01-21T00:48:09.525Z,51.87
2019-01-21T00:50:37.935Z,53.40
2019-01-21T00:53:06.379Z,52.83
2019-01-21T00:55:34.843Z,48.27
2019-01-21T00:58:03.324Z,46.23
2019-01-21T01:00:31.773Z,48.70
2019-01-21T01:03:01.227Z,44.93
2019-01-21T01:05:29.627Z,49.40
2019-01-21T01:07:58.063Z,52.33
2019-01-21T01:10:26.467Z,51.90
2019-01-21T01:12:54.937Z,47.33
2019-01-21T01:15:23.595Z,54.17
2019-01-21T01:17:51.991Z,51.07
2019-01-21T01:20:20.633Z,56.40
2019-01-21T01:22:49.081Z,52.30
2019-01-21T01:25:17.552Z,51.23
2019-01-21T01:27:45.956Z,52.17
2019-01-21T01:30:16.109Z,50.03
2019-01-21T01:32:44.532Z,49.30
2019-01-21T01:35:14.360Z,45.10
2019-01-21T01:37:43.349Z,46.40
2019-01-21T01:40:14.199Z,44.03
2019-01-21T01:42:42.619Z,45.07
2019-01-21T01:45:17.140Z,42.07
2019-01-21T01:47:45.554Z,43.27
2019-01-21T01:50:14.292Z,45.87
2019-01-21T01:52:42.745Z,47.57
2019-01-21T01:55:34.218Z,44.50
2019-01-21T01:58:03.047Z,47.50
2019-01-21T02:00:31.447Z,45.07
2019-01-21T02:02:59.851Z,45.50
2019-01-21T02:05:29.234Z,46.13
2019-01-21T02:07:57.634Z,44.80
2019-01-21T02:10:26.032Z,45.07
2019-01-21T02:12:54.464Z,41.37
2019-01-21T02:15:22.868Z,42.83
2019-01-21T02:17:52.149Z,45.77
2019-01-21T02:20:20.803Z,41.73
2019-01-21T02:22:58.323Z,40.27
2019-01-21T02:25:32.467Z,40.23
2019-01-21T02:28:31.436Z,42.00
2019-01-21T02:31:11.295Z,37.90
2019-01-21T02:34:07.159Z,36.87
2019-01-21T02:36:41.631Z,36.10
2019-01-21T02:39:25.332Z,35.50
2019-01-21T02:41:57.167Z,34.13
2019-01-21T02:44:44.223Z,35.13
2019-01-21T02:47:21.618Z,35.63
2019-01-21T02:49:59.167Z,35.60
2019-01-21T02:52:33.405Z,33.10
2019-01-21T02:55:29.356Z,33.67
2019-01-21T02:58:30.903Z,35.43
2019-01-21T03:01:19.183Z,33.23
2019-01-21T03:03:59.527Z,31.77
2019-01-21T03:06:44.170Z,32.07
2019-01-21T03:09:30.955Z,34.30
2019-01-21T03:12:14.568Z,31.63
2019-01-21T03:14:49.164Z,33.63
2019-01-21T03:17:23.759Z,36.63
2019-01-21T03:20:01.084Z,40.83
2019-01-21T03:22:44.843Z,36.97
2019-01-21T03:25:16.935Z,37.57
2019-01-21T03:28:06.525Z,37.03
2019-01-21T03:30:47.214Z,43.30
2019-01-21T03:33:27.604Z,42.47
2019-01-21T03:36:08.030Z,41.57
2019-01-21T03:39:11.348Z,41.57
2019-01-21T03:41:55.169Z,76.20
2019-01-21T03:45:03.618Z,46.83
2019-01-21T03:47:35.620Z,44.53
2019-01-21T03:50:29.708Z,47.23
2019-01-21T03:53:13.176Z,43.23
2019-01-21T03:55:41.572Z,44.20
2019-01-21T03:58:42.382Z,43.80
2019-01-21T04:01:19.904Z,40.80
2019-01-21T04:03:54.789Z,41.30
2019-01-21T04:06:26.670Z,43.73
2019-01-21T04:09:08.206Z,41.50
2019-01-21T04:12:04.161Z,42.60
2019-01-21T04:15:07.670Z,41.83
2019-01-21T04:17:54.260Z,41.57
2019-01-21T04:20:57.728Z,42.70
2019-01-21T04:23:59.475Z,43.40
2019-01-21T04:26:55.372Z,39.50
2019-01-21T04:30:00.296Z,44.63
2019-01-21T04:33:06.851Z,39.47
2019-01-21T04:35:44.041Z,42.17
2019-01-21T04:38:27.496Z,55.77
2019-01-21T04:41:10.846Z,51.10
2019-01-21T04:43:45.467Z,51.40
2019-01-21T04:46:32.376Z,50.27
2019-01-21T04:49:10.195Z,50.57
2019-01-21T04:51:58.613Z,51.10
2019-01-21T04:54:42.088Z,52.87
2019-01-21T04:57:30.437Z,51.00
2019-01-21T05:00:07.673Z,50.73
2019-01-21T05:03:09.554Z,50.90
2019-01-21T05:05:57.880Z,49.63
2019-01-21T05:08:41.514Z,50.10
2019-01-21T05:11:16.670Z,48.13
2019-01-21T05:13:48.375Z,48.13
2019-01-21T05:16:25.477Z,46.23
2019-01-21T05:18:57.212Z,45.77
2019-01-21T05:21:31.698Z,39.80
2019-01-21T05:24:27.824Z,41.73
2019-01-21T05:27:08.416Z,42.97
2019-01-21T05:29:43.054Z,41.07
2019-01-21T05:32:23.945Z,50.70
2019-01-21T05:35:15.985Z,60.73
2019-01-21T05:37:50.360Z,63.90
2019-01-21T05:40:22.089Z,41.13
2019-01-21T05:43:03.066Z,42.73
2019-01-21T05:46:09.351Z,46.13
2019-01-21T05:49:08.115Z,49.53
2019-01-21T05:51:57.905Z,52.20
2019-01-21T05:54:29.679Z,49.97
2019-01-21T05:57:22.545Z,49.17
2019-01-21T06:00:09.396Z,44.60
2019-01-21T06:02:43.859Z,43.20
2019-01-21T06:05:24.060Z,45.33
2019-01-21T06:08:18.307Z,45.93
2019-01-21T06:10:58.934Z,41.03
2019-01-21T06:13:34.955Z,42.27
2019-01-21T06:16:21.722Z,42.47
2019-01-21T06:19:05.214Z,44.03
2019-01-21T06:22:07.121Z,46.83
2019-01-21T06:24:47.740Z,49.00
2019-01-21T06:27:28.311Z,44.27
2019-01-21T06:30:20.520Z,44.53
2019-01-21T06:33:13.640Z,50.43
2019-01-21T06:35:45.415Z,56.00
2019-01-21T06:38:26.347Z,59.10
2019-01-21T06:41:01.010Z,65.37
2019-01-21T06:43:35.491Z,66.43
2019-01-21T06:46:19.079Z,78.90
2019-01-21T06:49:10.177Z,74.23
2019-01-21T06:51:44.688Z,71.43
2019-01-21T06:54:25.249Z,67.57
2019-01-21T06:56:57.002Z,64.77
2019-01-21T07:00:03.787Z,62.10
2019-01-21T07:02:41.324Z,58.00
2019-01-21T07:05:15.547Z,64.30
2019-01-21T07:08:07.888Z,73.03
2019-01-21T07:10:45.199Z,58.77
2019-01-21T07:13:16.986Z,68.87
2019-01-21T07:15:55.627Z,70.33
2019-01-21T07:18:39.548Z,63.17
2019-01-21T07:21:35.298Z,66.30
2019-01-21T07:24:30.810Z,65.33
2019-01-21T07:27:29.649Z,62.37
2019-01-21T07:30:18.983Z,63.63
2019-01-21T07:33:10.103Z,68.90
2019-01-21T07:36:03.054Z,74.10
2019-01-21T07:38:34.766Z,73.90
2019-01-21T07:41:27.519Z,71.57
2019-01-21T07:43:59.215Z,74.50
2019-01-21T07:46:36.883Z,89.23
2019-01-21T07:49:26.515Z,100.80
2019-01-21T07:52:23.773Z,96.40
2019-01-21T07:55:11.995Z,88.63
2019-01-21T07:57:59.196Z,91.23
2019-01-21T08:00:31.027Z,115.60
2019-01-21T08:03:22.363Z,122.40
2019-01-21T08:05:56.546Z,175.63
2019-01-21T08:08:37.464Z,202.73
2019-01-21T08:11:33.162Z,199.43
2019-01-21T08:14:13.947Z,159.13
2019-01-21T08:16:49.338Z,163.47
2019-01-21T08:19:26.902Z,178.43
2019-01-21T08:22:01.322Z,159.00
2019-01-21T08:24:33.183Z,124.70
2019-01-21T08:27:07.679Z,146.23
2019-01-21T08:29:48.192Z,203.73
2019-01-21T08:32:22.400Z,183.30
2019-01-21T08:35:12.060Z,179.67
2019-01-21T08:37:46.480Z,125.70
2019-01-21T08:40:20.847Z,113.93
2019-01-21T08:43:01.517Z,102.27
2019-01-21T08:45:48.189Z,98.70
2019-01-21T08:48:50.016Z,96.73
2019-01-21T08:51:33.073Z,106.33
2019-01-21T08:54:30.219Z,106.03
2019-01-21T08:57:10.613Z,116.70
2019-01-21T09:00:00.576Z,104.57
2019-01-21T09:02:34.911Z,116.20
2019-01-21T09:05:27.731Z,145.30
2019-01-21T09:08:15.823Z,127.33
2019-01-21T09:10:59.140Z,186.73
2019-01-21T09:13:42.601Z,101.30
2019-01-21T09:16:29.542Z,100.90
2019-01-21T09:19:22.182Z,88.90
2019-01-21T09:21:54.040Z,78.37
2019-01-21T09:24:34.859Z,59.97
2019-01-21T09:27:18.340Z,60.30
2019-01-21T09:29:55.667Z,52.40
2019-01-21T09:33:00.566Z,50.37
2019-01-21T09:35:48.637Z,56.17
2019-01-21T09:38:23.299Z,53.40
2019-01-21T09:41:07.088Z,48.50
2019-01-21T09:43:38.953Z,40.87
2019-01-21T09:46:13.239Z,40.50
2019-01-21T09:48:40.750Z,54.97
2019-01-21T09:51:09.179Z,51.90
2019-01-21T09:53:37.578Z,55.90
2019-01-21T09:56:06.078Z,62.30
2019-01-21T09:58:34.549Z,63.40
2019-01-21T10:01:03.336Z,68.90
2019-01-21T10:03:32.011Z,58.33
2019-01-21T10:06:04.419Z,60.30
2019-01-21T10:08:44.696Z,57.73
2019-01-21T10:11:38.811Z,54.03
2019-01-21T10:14:18.629Z,58.33
2019-01-21T10:17:02.801Z,67.37
2019-01-21T10:19:40.665Z,76.83
2019-01-21T10:22:22.430Z,82.20
2019-01-21T10:25:18.293Z,91.83
2019-01-21T10:28:07.945Z,86.53
2019-01-21T10:30:59.591Z,90.37
2019-01-21T10:34:06.650Z,86.60
2019-01-21T10:36:47.038Z,90.97
2019-01-21T10:39:30.646Z,77.97
2019-01-21T10:42:17.202Z,69.23
2019-01-21T10:45:17.557Z,57.73
2019-01-21T10:47:58.637Z,53.63
2019-01-21T10:50:39.386Z,57.13
2019-01-21T10:53:26.056Z,60.30
2019-01-21T10:56:06.540Z,64.27
2019-01-21T10:58:56.447Z,63.97
2019-01-21T11:01:31.157Z,65.37
2019-01-21T11:04:22.380Z,65.23
2019-01-21T11:07:00.003Z,62.43
2019-01-21T11:09:44.350Z,70.10
2019-01-21T11:12:21.868Z,76.37
2019-01-21T11:14:59.462Z,73.03
2019-01-21T11:17:52.867Z,73.17
2019-01-21T11:20:41.389Z,79.60
2019-01-21T11:23:29.152Z,74.70
2019-01-21T11:26:34.167Z,114.87
2019-01-21T11:29:23.515Z,91.87
2019-01-21T11:32:28.233Z,86.30
2019-01-21T11:35:03.557Z,88.37
2019-01-21T11:37:47.121Z,91.17
2019-01-21T11:40:22.909Z,92.00
2019-01-21T11:42:54.876Z,92.27
2019-01-21T11:45:36.752Z,89.20
2019-01-21T11:48:08.555Z,92.47
2019-01-21T11:50:46.227Z,93.77
2019-01-21T11:53:23.987Z,91.53
2019-01-21T11:56:01.416Z,89.70
2019-01-21T11:58:45.142Z,88.70
2019-01-21T12:01:32.120Z,84.47
2019-01-21T12:04:06.891Z,69.13
2019-01-21T12:06:39.682Z,74.43
2019-01-21T12:09:14.394Z,68.30
2019-01-21T12:11:52.195Z,83.50
2019-01-21T12:14:43.604Z,88.17
2019-01-21T12:17:27.620Z,73.60
2019-01-21T12:20:17.645Z,76.43
2019-01-21T12:23:05.936Z,85.20
2019-01-21T12:25:43.607Z,86.53
2019-01-21T12:28:33.182Z,95.43
2019-01-21T12:31:07.495Z,133.37
2019-01-21T12:33:39.291Z,155.57
2019-01-21T12:36:11.022Z,236.90
2019-01-21T12:39:06.883Z,183.37
2019-01-21T12:42:01.283Z,196.67
2019-01-21T12:44:40.939Z,134.37
2019-01-21T12:47:21.496Z,137.03
2019-01-21T12:50:12.556Z,111.67
2019-01-21T12:52:44.453Z,116.57
2019-01-21T12:55:31.555Z,116.53
2019-01-21T12:58:18.418Z,103.53
2019-01-21T13:00:53.032Z,110.43
2019-01-21T13:03:36.831Z,115.20
2019-01-21T13:06:14.391Z,105.97
2019-01-21T13:09:27.909Z,89.97
2019-01-21T13:12:27.310Z,111.50
2019-01-21T13:15:01.763Z,106.83
2019-01-21T13:17:33.663Z,110.37
2019-01-21T13:20:11.800Z,106.67
2019-01-21T13:22:43.523Z,96.07
2019-01-21T13:25:33.086Z,100.80
2019-01-21T13:28:32.133Z,105.53
2019-01-21T13:31:15.898Z,107.07
2019-01-21T13:34:05.615Z,110.53
2019-01-21T13:37:04.679Z,105.07
2019-01-21T13:39:42.387Z,109.23
2019-01-21T13:42:14.374Z,109.27
2019-01-21T13:44:46.201Z,115.63
2019-01-21T13:50:40.892Z,114.37
2019-01-21T13:53:21.394Z,112.00
2019-01-21T13:56:01.801Z,120.53
2019-01-21T13:59:02.041Z,112.47
2019-01-21T14:01:36.792Z,111.83
2019-01-21T14:04:34.156Z,107.93
2019-01-21T14:07:21.108Z,102.57
2019-01-21T14:09:56.018Z,104.37
2019-01-21T14:12:27.801Z,110.37
2019-01-21T14:15:08.912Z,115.30
2019-01-21T14:17:40.912Z,115.53
2019-01-21T14:20:18.088Z,113.37
2019-01-21T14:22:49.842Z,116.13
2019-01-21T14:25:24.579Z,118.50
2019-01-21T14:28:02.196Z,110.10
2019-01-21T14:30:40.095Z,101.13
2019-01-21T14:33:24.417Z,99.40
2019-01-21T14:36:00.413Z,112.17
2019-01-21T14:38:47.690Z,115.50
2019-01-21T14:41:28.761Z,114.60
2019-01-21T14:44:21.358Z,114.37
2019-01-21T14:47:03.337Z,114.90
2019-01-21T14:49:46.153Z,114.80
2019-01-21T14:52:30.622Z,118.63
2019-01-21T14:55:08.510Z,122.50
2019-01-21T14:57:48.925Z,145.70
2019-01-21T15:00:38.858Z,192.40
2019-01-21T15:03:19.658Z,176.33
2019-01-21T15:06:20.146Z,139.57
2019-01-21T15:08:51.970Z,139.57
2019-01-21T15:11:45.677Z,128.43
2019-01-21T15:14:27.088Z,125.83
2019-01-21T15:17:15.256Z,125.23
2019-01-21T15:19:44.358Z,147.33
2019-01-21T15:22:21.894Z,161.50
2019-01-21T15:25:06.855Z,141.60
2019-01-21T15:27:56.551Z,142.03
2019-01-21T15:30:40.465Z,162.23
2019-01-21T15:33:16.029Z,171.00
2019-01-21T15:36:04.872Z,172.97
2019-01-21T15:38:37.064Z,172.93
2019-01-21T15:41:17.751Z,165.50
2019-01-21T15:43:57.411Z,172.83
2019-01-21T15:46:34.416Z,138.37
2019-01-21T15:49:15.911Z,129.30
2019-01-21T15:51:50.319Z,146.57
2019-01-21T15:54:22.015Z,138.37
2019-01-21T15:57:18.483Z,144.07
2019-01-21T16:00:16.114Z,140.67
2019-01-21T16:03:15.127Z,149.77
2019-01-21T16:05:56.420Z,150.50
2019-01-21T16:08:29.754Z,161.90
2019-01-21T16:11:20.332Z,163.87
2019-01-21T16:13:50.864Z,159.10
2019-01-21T16:16:34.787Z,152.47
2019-01-21T16:19:06.497Z,143.73
2019-01-21T16:21:52.948Z,137.00
2019-01-21T16:24:36.902Z,131.40
2019-01-21T16:27:20.556Z,134.53
2019-01-21T16:30:03.668Z,145.17
2019-01-21T16:32:34.532Z,152.60
2019-01-21T16:35:10.171Z,147.37
2019-01-21T16:37:53.114Z,138.13
2019-01-21T16:40:24.847Z,140.77
2019-01-21T16:42:53.944Z,134.20
2019-01-21T16:45:22.574Z,137.37
2019-01-21T16:47:50.963Z,147.70
2019-01-21T16:53:11.925Z,136.30
2019-01-21T16:55:40.376Z,139.10
2019-01-21T16:58:08.975Z,154.67
2019-01-21T17:00:37.725Z,151.77
2019-01-21T17:03:06.707Z,150.47
2019-01-21T17:05:35.767Z,155.60
2019-01-21T17:08:04.685Z,154.87
2019-01-21T17:10:39.080Z,156.63
2019-01-21T17:13:05.887Z,150.93
2019-01-21T17:15:35.108Z,156.10
2019-01-21T17:18:03.875Z,153.23
2019-01-21T17:20:33.141Z,151.53
2019-01-21T17:23:01.887Z,156.10
2019-01-21T17:25:30.401Z,147.33
2019-01-21T17:28:00.650Z,153.60
2019-01-21T17:30:30.472Z,126.00
2019-01-21T17:32:59.148Z,125.47
2019-01-21T17:35:28.369Z,126.67
2019-01-21T17:37:57.715Z,147.53
2019-01-21T17:40:26.208Z,140.33
2019-01-21T17:42:55.020Z,137.33
2019-01-21T17:45:23.852Z,129.50
2019-01-21T17:47:52.326Z,131.93
2019-01-21T17:50:20.929Z,131.40
2019-01-21T17:52:49.753Z,123.43
2019-01-21T17:55:18.446Z,118.20
2019-01-21T17:57:46.857Z,119.30
2019-01-21T18:00:19.466Z,129.93
2019-01-21T18:02:47.967Z,130.43
2019-01-21T18:05:16.600Z,132.50
2019-01-21T18:07:45.455Z,119.37
2019-01-21T18:10:16.810Z,119.63
2019-01-21T18:12:45.355Z,111.23
2019-01-21T18:15:13.979Z,116.47
2019-01-21T18:17:42.478Z,121.77
2019-01-21T18:20:14.213Z,116.47
2019-01-21T18:22:42.726Z,122.13
2019-01-21T18:25:11.983Z,134.23
2019-01-21T18:27:40.640Z,131.47
2019-01-21T18:30:12.459Z,129.43
2019-01-21T18:32:41.100Z,158.43
2019-01-21T18:35:11.368Z,154.83
2019-01-21T18:37:40.467Z,140.70
2019-01-21T18:40:12.743Z,131.00
2019-01-21T18:42:41.384Z,131.57
2019-01-21T18:45:13.171Z,125.47
2019-01-21T18:47:41.618Z,115.70
2019-01-21T18:50:11.071Z,116.77
2019-01-21T18:52:39.584Z,127.13
2019-01-21T18:55:10.016Z,128.70
2019-01-21T18:57:39.173Z,137.83
2019-01-21T19:00:11.243Z,138.17
2019-01-21T19:02:40.164Z,130.17
2019-01-21T19:05:09.772Z,136.33
2019-01-21T19:07:38.550Z,152.33
2019-01-21T19:10:10.297Z,151.83
2019-01-21T19:12:38.713Z,165.77
2019-01-21T19:15:10.663Z,185.00
2019-01-21T19:17:48.085Z,173.87
2019-01-21T19:20:17.322Z,169.43
2019-01-21T19:22:45.822Z,168.23
2019-01-21T19:25:14.228Z,172.83
2019-01-21T19:27:42.818Z,161.67
2019-01-21T19:30:17.248Z,141.53
2019-01-21T19:32:45.887Z,142.77
2019-01-21T19:35:17.540Z,155.27
2019-01-21T19:37:46.020Z,153.20
2019-01-21T19:40:17.430Z,166.63
2019-01-21T19:42:46.929Z,162.63
2019-01-21T19:45:15.853Z,160.13
2019-01-21T19:47:44.301Z,142.03
2019-01-21T19:50:21.009Z,145.73
2019-01-21T19:52:49.428Z,134.57
2019-01-21T19:55:24.286Z,133.87
2019-01-21T19:57:52.779Z,145.77
2019-01-21T20:00:22.481Z,159.17
2019-01-21T20:02:51.092Z,154.93
2019-01-21T20:05:19.668Z,147.50
2019-01-21T20:07:48.476Z,152.50
2019-01-21T20:10:19.550Z,163.27
2019-01-21T20:12:48.054Z,170.83
2019-01-21T20:15:20.396Z,171.87
2019-01-21T20:17:49.058Z,163.83
2019-01-21T20:20:26.639Z,158.77
2019-01-21T20:22:57.628Z,132.13
2019-01-21T20:25:27.357Z,159.50
2019-01-21T20:27:55.861Z,135.97
2019-01-21T20:30:25.336Z,149.43
2019-01-21T20:32:53.761Z,156.20
2019-01-21T20:35:22.422Z,158.00
2019-01-21T20:37:51.291Z,181.37
2019-01-21T20:40:28.314Z,157.90
2019-01-21T20:42:57.586Z,180.60
2019-01-21T20:45:28.017Z,177.73
2019-01-21T20:48:02.227Z,172.53
2019-01-21T20:50:33.090Z,151.73
2019-01-21T20:53:01.863Z,164.90
2019-01-21T20:55:30.257Z,160.60
2019-01-21T20:57:58.877Z,152.03
2019-01-21T21:03:16.650Z,136.20
2019-01-21T21:05:45.544Z,112.93
2019-01-21T21:08:14.008Z,91.73
2019-01-21T21:10:42.441Z,96.73
2019-01-21T21:13:10.843Z,100.17
2019-01-21T21:15:39.462Z,97.37
2019-01-21T21:18:08.356Z,97.63
2019-01-21T21:20:37.037Z,101.83
2019-01-21T21:23:05.490Z,122.27
2019-01-21T21:25:34.250Z,156.23
2019-01-21T21:28:02.863Z,129.90
2019-01-21T21:30:32.483Z,130.50
2019-01-21T21:33:01.149Z,130.77
2019-01-21T21:35:30.793Z,134.10
2019-01-21T21:40:47.517Z,134.83
2019-01-21T21:43:16.085Z,136.43
2019-01-21T21:45:45.832Z,118.13
2019-01-21T21:48:15.502Z,115.93
2019-01-21T21:50:43.984Z,115.23
2019-01-21T21:53:12.668Z,119.53
2019-01-21T21:55:41.617Z,119.10
2019-01-21T21:58:10.245Z,110.67
2019-01-21T22:00:39.334Z,111.33
2019-01-21T22:03:07.772Z,100.67
2019-01-21T22:05:36.416Z,105.63
2019-01-21T22:08:08.063Z,105.63
2019-01-21T22:10:36.947Z,106.40
2019-01-21T22:13:05.841Z,99.00
2019-01-21T22:15:34.516Z,88.87
2019-01-21T22:18:03.355Z,93.90
2019-01-21T22:20:32.083Z,93.53
2019-01-21T22:23:00.904Z,104.17
2019-01-21T22:25:29.347Z,102.90
2019-01-21T22:27:58.027Z,99.87
2019-01-21T22:30:28.504Z,101.23
2019-01-21T22:32:57.004Z,104.13
2019-01-21T22:35:25.507Z,104.50
2019-01-21T22:37:54.047Z,100.53
2019-01-21T22:40:22.794Z,96.53
2019-01-21T22:42:51.169Z,92.23
2019-01-21T22:45:20.203Z,91.67
2019-01-21T22:47:48.845Z,83.77
2019-01-21T22:50:19.104Z,81.20
2019-01-21T22:52:47.504Z,87.37
2019-01-21T22:55:16.820Z,83.80
2019-01-21T22:57:45.287Z,75.23
2019-01-21T23:00:33.873Z,72.97
2019-01-21T23:03:02.528Z,67.87
2019-01-21T23:05:30.998Z,71.47
2019-01-21T23:07:59.446Z,81.57
2019-01-21T23:10:27.859Z,77.50
2019-01-21T23:12:56.657Z,74.60
2019-01-21T23:15:25.112Z,69.80
2019-01-21T23:17:53.517Z,73.57
2019-01-21T23:20:21.923Z,82.27
2019-01-21T23:22:50.643Z,87.37
2019-01-21T23:25:19.064Z,84.07
2019-01-21T23:27:47.460Z,82.63
2019-01-21T23:30:18.953Z,83.40
2019-01-21T23:32:47.567Z,80.40
2019-01-21T23:35:15.976Z,74.63
2019-01-21T23:37:44.420Z,95.40
2019-01-21T23:40:13.360Z,95.87
2019-01-21T23:42:41.760Z,104.87
2019-01-21T23:45:11.604Z,95.50
2019-01-21T23:47:40.036Z,92.67
2019-01-21T23:50:11.544Z,99.60
2019-01-21T23:52:41.344Z,107.90
2019-01-21T23:55:11.187Z,105.40
2019-01-21T23:57:39.595Z,102.87
